Allison, Texas
Current Conditions -  °F | °C
As of 1:15 PM on Saturday 25 Oct 2014 (Local Time) from KHHF Reporting Station
Clear Clear  
Wind Chill: 87°   Ceiling: Unl
Heat Index: 87°   Visibility: NA
Dew Point: 52°   Wind: 12mph
Humidity: 29%   Direction: 210°SSW
Pressure: 30.09"   Gusts: 17mph
Location:  35.61°N, 100.1°W
Report Text: KHHF 251815Z AUTO 21010G15KT CLR 31/11 A3009 RMK AO2 T03080109 PWINO
Loading
Personal Weather Stations






























Interactive Weather Map New forecast layout! Learn more

10-Day Weather Forecast

Advertisements
Track Severe Weather on mobile